Time;durP1;ratioP1;P1;durP2;ratioP2;P2;SDS_P1;SDS_P2;PMS_P1;PMS_P2;Temp;Humidity;BMP_temperature;BMP_pressure;BME280_temperature;BME280_humidity;BME280_pressure;Samples;Min_cycle;Max_cycle;Signal;HPM_P1;HPM_P2
2022/01/26 00:06:35;;;;;;;;;;;;;;;1.51;85.60;98393.47;4185253;28;5653;-65
2022/01/26 00:08:38;;;;;;;;;;;;;;;1.51;85.67;98390.88;4184182;28;5793;-64
2022/01/26 00:10:40;;;;;;;;;;;;;;;1.57;85.09;98393.06;4167590;28;5665;-65
2022/01/26 00:12:41;;;;;;;;;;;;;;;1.64;84.76;98388.31;4185449;28;5649;-65
2022/01/26 00:14:44;;;;;;;;;;;;;;;1.62;84.76;98388.41;4183996;28;5705;-65
2022/01/26 00:16:45;;;;;;;;;;;;;;;1.60;84.76;98392.06;4167409;28;5653;-65
2022/01/26 00:18:49;;;;;;;;;;;;;;;1.47;85.01;98386.75;4183807;28;5105;-65
2022/01/26 00:20:56;;;;;;;;;;;;;;;1.41;85.11;98387.16;4185020;28;5683;-65
2022/01/26 00:27:38;;;;;;;;;;;;;;;1.41;84.18;98381.97;4183976;28;5737;-65
2022/01/26 00:29:47;;;;;;;;;;;;;;;1.29;84.51;98382.72;4199833;28;5615;-65
2022/01/26 00:38:34;;;;;;;;;;;;;;;1.24;84.61;98385.63;4200428;28;5689;-65
2022/01/26 00:39:01;;;;;;;;;;;;;;;1.15;84.88;98384.44;4199825;28;5634;-65
2022/01/26 00:41:06;;;;;;;;;;;;;;;1.12;84.96;98383.78;4201756;28;5729;-64
2022/01/26 00:43:16;;;;;;;;;;;;;;;1.09;84.74;98384.81;4200311;28;5722;-65
2022/01/26 00:45:22;;;;;;;;;;;;;;;1.14;84.77;98387.97;4201670;28;5634;-65
2022/01/26 00:47:23;;;;;;;;;;;;;;;1.17;84.54;98384.34;4201388;28;5670;-64
2022/01/26 00:49:26;;;;;;;;;;;;;;;1.25;84.61;98376.06;4201719;28;5723;-65
2022/01/26 00:51:28;;;;;;;;;;;;;;;1.37;84.31;98372.69;4201145;28;5642;-65
2022/01/26 00:53:41;;;;;;;;;;;;;;;1.33;84.50;98387.66;4201348;28;5631;-65
2022/01/26 00:55:43;;;;;;;;;;;;;;;1.00;85.41;98381.94;4188588;28;5713;-65
2022/01/26 00:57:46;;;;;;;;;;;;;;;0.80;86.68;98385.78;4204779;28;5634;-65
2022/01/26 00:59:47;;;;;;;;;;;;;;;0.60;87.53;98379.16;4204885;28;5650;-65
2022/01/26 01:01:49;;;;;;;;;;;;;;;0.84;86.90;98376.84;4204689;28;5729;-65
2022/01/26 01:03:51;;;;;;;;;;;;;;;0.86;86.93;98380.19;4205236;28;5654;-65
2022/01/26 01:06:03;;;;;;;;;;;;;;;0.91;86.61;98377.28;4186625;28;5744;-65
2022/01/26 01:08:10;;;;;;;;;;;;;;;0.99;86.54;98383.69;4204754;28;5630;-64
2022/01/26 01:10:13;;;;;;;;;;;;;;;1.08;85.96;98377.94;4205009;28;6431;-65
2022/01/26 01:12:15;;;;;;;;;;;;;;;1.17;85.42;98377.38;4204244;28;5619;-65
2022/01/26 01:14:17;;;;;;;;;;;;;;;1.20;85.36;98378.09;4204603;28;5630;-65
2022/01/26 01:16:22;;;;;;;;;;;;;;;1.21;85.38;98383.22;4204321;28;5639;-65
2022/01/26 01:18:32;;;;;;;;;;;;;;;1.04;86.31;98380.84;4204709;28;5642;-65
2022/01/26 01:22:57;;;;;;;;;;;;;;;1.23;85.79;98377.91;4188622;28;5768;-65
2022/01/26 01:25:41;;;;;;;;;;;;;;;1.38;85.01;98377.78;4204620;28;5698;-65
2022/01/26 01:27:57;;;;;;;;;;;;;;;1.50;84.63;98381.38;4204314;28;5710;-63
2022/01/26 01:29:58;;;;;;;;;;;;;;;1.61;84.14;98376.31;4203615;28;5635;-65
2022/01/26 01:32:01;;;;;;;;;;;;;;;1.52;83.96;98376.06;4204261;28;5748;-64
2022/01/26 01:34:03;;;;;;;;;;;;;;;1.40;84.21;98375.91;4204274;28;5777;-65
2022/01/26 01:36:06;;;;;;;;;;;;;;;1.40;84.25;98378.53;4169897;28;5668;-64
2022/01/26 01:38:10;;;;;;;;;;;;;;;1.42;84.11;98383.63;4202636;28;5781;-64
2022/01/26 01:40:12;;;;;;;;;;;;;;;1.35;84.20;98387.53;4204157;28;5626;-64
2022/01/26 01:42:14;;;;;;;;;;;;;;;1.29;84.40;98387.94;4204381;28;5622;-64
2022/01/26 01:44:16;;;;;;;;;;;;;;;1.26;84.32;98388.16;4202679;28;5755;-65
2022/01/26 01:46:18;;;;;;;;;;;;;;;1.26;84.26;98390.75;4186236;28;5074;-65
2022/01/26 01:48:28;;;;;;;;;;;;;;;1.22;84.29;98392.69;4204394;28;7655;-64
2022/01/26 01:50:35;;;;;;;;;;;;;;;1.21;84.43;98387.59;4203738;28;5631;-64
2022/01/26 01:52:37;;;;;;;;;;;;;;;1.16;84.42;98396.53;4186377;28;5761;-64
2022/01/26 01:54:40;;;;;;;;;;;;;;;1.21;84.22;98390.19;4203969;28;5658;-64
2022/01/26 01:56:44;;;;;;;;;;;;;;;1.23;84.19;98394.38;4203906;28;5643;-65
2022/01/26 01:58:45;;;;;;;;;;;;;;;1.27;83.81;98392.41;4203746;28;5734;-64
2022/01/26 02:00:47;;;;;;;;;;;;;;;1.29;83.72;98386.19;4204079;28;5627;-64
2022/01/26 02:02:49;;;;;;;;;;;;;;;1.24;83.47;98384.78;4203766;28;5659;-65
2022/01/26 02:04:51;;;;;;;;;;;;;;;1.33;83.44;98389.41;4204230;28;5646;-65
2022/01/26 02:06:52;;;;;;;;;;;;;;;1.40;83.19;98381.13;4202032;28;5743;-63
2022/01/26 02:08:54;;;;;;;;;;;;;;;1.42;82.83;98381.03;4203929;28;5769;-63
2022/01/26 02:10:56;;;;;;;;;;;;;;;1.48;82.76;98379.81;4203620;28;5630;-64
2022/01/26 02:13:01;;;;;;;;;;;;;;;1.47;82.77;98384.16;4203740;28;6185;-64
2022/01/26 02:15:09;;;;;;;;;;;;;;;1.47;82.47;98381.56;4202351;28;5078;-64
2022/01/26 02:21:58;;;;;;;;;;;;;;;1.41;82.27;98377.59;4203694;28;5646;-64
2022/01/26 02:49:50;;;;;;;;;;;;;;;1.14;83.68;98366.31;4220162;28;5615;-64
2022/01/26 02:52:08;;;;;;;;;;;;;;;1.29;83.09;98362.72;4218652;28;5784;-64
2022/01/26 02:56:23;;;;;;;;;;;;;;;1.25;82.95;98365.63;4219542;28;5616;-64
2022/01/26 03:02:51;;;;;;;;;;;;;;;1.26;82.94;98377.72;4219502;28;5611;-64
2022/01/26 03:04:55;;;;;;;;;;;;;;;1.24;83.13;98376.97;4184857;28;5821;-65
2022/01/26 03:07:10;;;;;;;;;;;;;;;1.26;83.19;98373.34;4219716;28;5623;-64
2022/01/26 03:09:15;;;;;;;;;;;;;;;1.23;82.98;98373.53;4219690;28;5724;-64
2022/01/26 03:11:18;;;;;;;;;;;;;;;1.21;83.12;98375.41;4201548;28;5692;-64
2022/01/26 03:13:25;;;;;;;;;;;;;;;1.16;83.20;98373.09;4219620;28;5629;-65
2022/01/26 03:15:41;;;;;;;;;;;;;;;1.03;83.71;98366.13;4201166;28;5626;-64
2022/01/26 03:19:49;;;;;;;;;;;;;;;1.07;83.66;98371.06;4201393;28;5670;-64
2022/01/26 03:28:58;;;;;;;;;;;;;;;0.96;84.09;98370.88;4219516;28;5627;-65
2022/01/26 03:35:42;;;;;;;;;;;;;;;0.80;84.76;98370.16;4217545;28;5682;-66
2022/01/26 03:37:55;;;;;;;;;;;;;;;0.72;85.11;98367.19;4219329;28;5611;-66
2022/01/26 03:39:57;;;;;;;;;;;;;;;0.76;85.01;98373.88;4219310;28;5607;-66
2022/01/26 03:42:09;;;;;;;;;;;;;;;0.83;84.87;98369.97;4219119;28;5663;-66
2022/01/26 03:44:12;;;;;;;;;;;;;;;0.84;84.74;98369.03;4200963;28;5743;-66
2022/01/26 03:46:14;;;;;;;;;;;;;;;0.71;85.25;98371.56;4219021;28;5053;-66
2022/01/26 03:48:15;;;;;;;;;;;;;;;0.74;85.13;98371.34;4218666;28;7638;-66
2022/01/26 03:50:17;;;;;;;;;;;;;;;0.74;84.93;98362.72;4219007;28;5615;-66
2022/01/26 03:52:19;;;;;;;;;;;;;;;0.75;85.28;98367.81;4217799;28;5770;-66
2022/01/26 03:54:21;;;;;;;;;;;;;;;0.82;84.86;98369.13;4218726;28;5615;-66
2022/01/26 03:56:23;;;;;;;;;;;;;;;0.90;84.91;98366.03;4218634;28;5859;-66
2022/01/26 03:58:24;;;;;;;;;;;;;;;0.85;85.18;98370.69;4218669;28;5666;-66
2022/01/26 04:00:26;;;;;;;;;;;;;;;0.80;85.26;98370.16;4219019;28;5704;-66
2022/01/26 04:02:27;;;;;;;;;;;;;;;0.80;85.52;98375.38;4219132;28;5638;-66
2022/01/26 04:04:39;;;;;;;;;;;;;;;0.80;85.15;98364.97;4200628;28;5698;-64
2022/01/26 04:06:40;;;;;;;;;;;;;;;0.88;84.98;98373.94;4217222;28;5642;-65
2022/01/26 04:08:44;;;;;;;;;;;;;;;0.90;84.96;98371.25;4184327;28;5663;-65
2022/01/26 04:12:53;;;;;;;;;;;;;;;0.86;85.03;98370.59;4218651;28;5607;-65
2022/01/26 04:15:01;;;;;;;;;;;;;;;0.90;84.74;98368.63;4218313;28;5851;-65
2022/01/26 04:17:03;;;;;;;;;;;;;;;0.94;84.80;98379.72;4218822;28;5771;-65
2022/01/26 04:19:05;;;;;;;;;;;;;;;0.94;84.69;98369.31;4217304;28;5694;-65
2022/01/26 04:23:37;;;;;;;;;;;;;;;0.91;84.83;98369.47;4218519;28;5604;-65
2022/01/26 04:25:41;;;;;;;;;;;;;;;0.82;85.06;98366.53;4218780;28;5622;-65
2022/01/26 04:27:47;;;;;;;;;;;;;;;0.82;85.08;98368.28;4200512;28;5634;-65
2022/01/26 04:29:50;;;;;;;;;;;;;;;0.90;85.02;98367.81;4217711;28;6273;-64
2022/01/26 04:31:51;;;;;;;;;;;;;;;0.85;85.42;98362.88;4218392;28;5167;-64
2022/01/26 04:33:53;;;;;;;;;;;;;;;0.77;85.83;98371.16;4218058;28;7449;-64
2022/01/26 04:35:55;;;;;;;;;;;;;;;0.77;85.94;98363.34;4218059;28;5678;-64
2022/01/26 04:40:35;;;;;;;;;;;;;;;1.01;85.23;98357.56;4192692;28;5620;-65
2022/01/26 04:44:52;;;;;;;;;;;;;;;0.97;85.20;98356.94;4208822;28;5610;-64
2022/01/26 04:46:54;;;;;;;;;;;;;;;0.93;85.49;98358.06;4193405;28;5750;-65
2022/01/26 04:48:56;;;;;;;;;;;;;;;0.91;85.51;98362.53;4197080;28;5837;-65
2022/01/26 04:50:59;;;;;;;;;;;;;;;0.94;85.56;98357.13;4210067;28;5719;-65
2022/01/26 04:53:00;;;;;;;;;;;;;;;0.86;85.92;98354.16;4214710;28;5631;-65
2022/01/26 04:55:02;;;;;;;;;;;;;;;0.80;86.38;98355.38;4209148;28;5600;-65
2022/01/26 04:57:04;;;;;;;;;;;;;;;0.80;86.49;98354.53;4212673;28;5611;-65
2022/01/26 04:59:06;;;;;;;;;;;;;;;0.78;86.75;98345.97;4194117;28;5785;-66
2022/01/26 05:01:07;;;;;;;;;;;;;;;0.70;87.09;98338.66;4210872;28;5121;-65
2022/01/26 05:03:09;;;;;;;;;;;;;;;0.62;87.56;98347.84;4218488;28;5631;-65
2022/01/26 05:05:13;;;;;;;;;;;;;;;0.68;87.49;98331.84;4218108;28;5731;-65
2022/01/26 05:07:15;;;;;;;;;;;;;;;0.86;86.63;98335.91;4210537;28;5699;-65
2022/01/26 05:09:19;;;;;;;;;;;;;;;0.94;86.39;98333.69;4201666;28;5626;-65
2022/01/26 05:11:36;;;;;;;;;;;;;;;0.96;86.41;98329.22;4200281;28;5683;-65
2022/01/26 05:13:38;;;;;;;;;;;;;;;1.04;86.27;98339.16;4191329;28;5627;-65
2022/01/26 05:15:41;;;;;;;;;;;;;;;1.01;86.21;98332.34;4200052;28;5659;-65
2022/01/26 05:17:42;;;;;;;;;;;;;;;1.04;86.28;98326.97;4217318;28;5634;-65
2022/01/26 05:19:44;;;;;;;;;;;;;;;1.09;86.10;98334.47;4217039;28;5737;-65
2022/01/26 05:21:45;;;;;;;;;;;;;;;1.15;85.94;98329.75;4198761;28;5745;-65
2022/01/26 05:23:47;;;;;;;;;;;;;;;1.16;86.02;98322.75;4215635;28;5643;-65
2022/01/26 05:25:49;;;;;;;;;;;;;;;1.21;85.86;98332.88;4216690;28;5729;-65
2022/01/26 05:27:50;;;;;;;;;;;;;;;1.23;85.76;98320.59;4194567;28;5634;-65
2022/01/26 05:29:52;;;;;;;;;;;;;;;1.23;85.92;98334.44;4211921;28;5619;-64
2022/01/26 05:31:53;;;;;;;;;;;;;;;1.17;86.23;98327.88;4217817;28;5636;-65
2022/01/26 05:33:56;;;;;;;;;;;;;;;1.20;86.12;98331.22;4218034;28;5746;-65
2022/01/26 05:35:57;;;;;;;;;;;;;;;1.20;86.00;98331.22;4217079;28;5635;-65
2022/01/26 05:37:59;;;;;;;;;;;;;;;1.25;85.90;98339.59;4218086;28;5610;-65
2022/01/26 05:40:03;;;;;;;;;;;;;;;1.29;85.95;98335.84;4212732;28;5641;-65
2022/01/26 05:42:08;;;;;;;;;;;;;;;1.27;86.14;98335.94;4207797;28;6089;-65
2022/01/26 05:44:10;;;;;;;;;;;;;;;1.16;86.47;98333.19;4169868;28;7024;-65
2022/01/26 05:46:18;;;;;;;;;;;;;;;1.10;86.93;98331.78;4206559;28;5626;-65
2022/01/26 05:48:22;;;;;;;;;;;;;;;1.15;86.70;98332.34;4217436;28;5069;-65
2022/01/26 05:50:24;;;;;;;;;;;;;;;1.09;87.51;98327.50;4217867;28;7707;-65
2022/01/26 05:52:26;;;;;;;;;;;;;;;1.15;87.09;98323.69;4193810;28;5645;-65
2022/01/26 05:54:28;;;;;;;;;;;;;;;1.09;87.14;98318.84;4196867;28;5091;-65
2022/01/26 05:56:30;;;;;;;;;;;;;;;1.00;87.59;98327.25;4205580;28;7692;-66
2022/01/26 05:58:32;;;;;;;;;;;;;;;0.94;87.52;98328.47;4201945;28;5638;-65
2022/01/26 06:00:34;;;;;;;;;;;;;;;0.96;87.55;98324.00;4200055;28;5647;-67
2022/01/26 06:02:36;;;;;;;;;;;;;;;1.01;87.25;98321.94;4191224;22;5646;-67
2022/01/26 06:04:38;;;;;;;;;;;;;;;0.97;87.59;98325.69;4180410;28;5694;-66
2022/01/26 06:06:39;;;;;;;;;;;;;;;0.98;87.73;98332.56;4174937;28;5742;-67
2022/01/26 06:08:43;;;;;;;;;;;;;;;1.01;87.44;98328.91;4176216;28;5814;-68
2022/01/26 06:10:45;;;;;;;;;;;;;;;1.07;87.27;98326.78;4169288;28;5810;-68
2022/01/26 06:12:47;;;;;;;;;;;;;;;1.10;87.21;98325.75;4185333;28;5718;-67
2022/01/26 06:14:48;;;;;;;;;;;;;;;1.01;87.87;98329.75;4185794;28;5686;-67
2022/01/26 06:16:50;;;;;;;;;;;;;;;0.98;87.99;98342.97;4185103;28;5722;-68
2022/01/26 06:18:51;;;;;;;;;;;;;;;0.99;88.12;98352.44;4185718;28;5850;-67
2022/01/26 06:20:55;;;;;;;;;;;;;;;1.00;88.10;98346.31;4177405;28;5857;-67
2022/01/26 06:22:56;;;;;;;;;;;;;;;1.05;87.84;98348.66;4179456;28;5881;-67
2022/01/26 06:25:02;;;;;;;;;;;;;;;1.03;87.95;98353.13;4185370;28;5638;-66
2022/01/26 06:27:04;;;;;;;;;;;;;;;0.99;87.97;98344.63;4186710;28;5703;-66
2022/01/26 06:29:06;;;;;;;;;;;;;;;1.00;88.02;98342.88;4185831;28;5653;-67
2022/01/26 06:31:11;;;;;;;;;;;;;;;0.93;88.12;98334.63;4186349;28;5754;-67
2022/01/26 06:33:14;;;;;;;;;;;;;;;0.95;88.06;98337.97;4186339;28;5812;-67
2022/01/26 06:35:15;;;;;;;;;;;;;;;1.04;87.72;98336.56;4183542;28;5897;-67
2022/01/26 06:37:18;;;;;;;;;;;;;;;1.05;87.80;98333.84;4176631;28;5854;-67
2022/01/26 06:39:20;;;;;;;;;;;;;;;1.06;87.80;98345.94;4177134;28;5714;-65
2022/01/26 06:41:28;;;;;;;;;;;;;;;1.07;88.04;98338.97;4182832;28;5650;-66
2022/01/26 06:43:31;;;;;;;;;;;;;;;1.09;87.86;98345.75;4186393;28;5827;-66
2022/01/26 06:45:38;;;;;;;;;;;;;;;1.15;87.81;98355.78;4186656;28;6587;-67
2022/01/26 06:47:59;;;;;;;;;;;;;;;1.17;87.88;98346.09;4169004;28;5688;-67
2022/01/26 06:50:02;;;;;;;;;;;;;;;1.20;87.55;98345.06;4186086;28;5834;-66
2022/01/26 06:52:04;;;;;;;;;;;;;;;1.17;87.55;98337.44;4185430;28;5714;-66
2022/01/26 06:54:05;;;;;;;;;;;;;;;1.14;87.88;98343.69;4175205;28;5665;-66
2022/01/26 06:56:07;;;;;;;;;;;;;;;1.08;88.26;98354.50;4186001;28;5730;-67
2022/01/26 06:58:09;;;;;;;;;;;;;;;1.10;88.04;98346.56;4185783;28;5792;-67
2022/01/26 07:00:11;;;;;;;;;;;;;;;1.17;87.74;98348.72;4186500;28;5744;-67
2022/01/26 07:02:13;;;;;;;;;;;;;;;1.21;87.63;98357.16;4182275;28;5752;-67
2022/01/26 07:04:15;;;;;;;;;;;;;;;1.21;87.81;98361.53;4181369;28;6588;-67
2022/01/26 07:06:17;;;;;;;;;;;;;;;1.16;87.90;98359.22;4176882;28;5664;-67
2022/01/26 07:08:18;;;;;;;;;;;;;;;1.17;87.84;98364.34;4178253;28;5729;-67
2022/01/26 07:10:20;;;;;;;;;;;;;;;1.26;87.53;98357.72;4165127;28;6831;-67
2022/01/26 07:12:22;;;;;;;;;;;;;;;1.20;88.08;98365.91;4186395;28;5719;-67
2022/01/26 07:19:49;;;;;;;;;;;;;;;1.26;87.80;98362.94;4183852;28;5652;-67
2022/01/26 07:21:29;;;;;;;;;;;;;;;1.39;87.23;98362.97;4186083;28;5723;-67
2022/01/26 07:23:31;;;;;;;;;;;;;;;1.31;87.51;98366.06;4184959;28;5722;-67
2022/01/26 07:25:32;;;;;;;;;;;;;;;1.37;87.30;98370.06;4185181;28;5715;-67
2022/01/26 07:27:34;;;;;;;;;;;;;;;1.30;87.69;98369.59;4184614;28;5711;-68
2022/01/26 07:29:36;;;;;;;;;;;;;;;1.45;87.22;98367.78;4185042;28;5711;-67
2022/01/26 07:31:42;;;;;;;;;;;;;;;1.45;87.04;98362.56;4185684;28;5739;-66
2022/01/26 07:33:44;;;;;;;;;;;;;;;1.49;87.05;98368.44;4183098;28;5937;-66
2022/01/26 07:35:46;;;;;;;;;;;;;;;1.52;86.92;98363.88;4185724;28;5096;-66
2022/01/26 07:37:48;;;;;;;;;;;;;;;1.53;87.11;98370.75;4184446;28;7769;-66
2022/01/26 07:40:03;;;;;;;;;;;;;;;1.44;87.33;98366.13;4166304;28;6361;-66
2022/01/26 07:42:04;;;;;;;;;;;;;;;1.44;87.49;98366.97;4184936;28;5091;-66
2022/01/26 07:44:06;;;;;;;;;;;;;;;1.48;87.20;98365.00;4182535;28;7752;-66
2022/01/26 07:46:09;;;;;;;;;;;;;;;1.51;87.31;98377.00;4171948;28;5783;-66
2022/01/26 07:48:11;;;;;;;;;;;;;;;1.53;87.18;98375.97;4183408;28;5797;-67
2022/01/26 07:50:15;;;;;;;;;;;;;;;1.45;87.56;98373.84;4183011;28;5890;-67
2022/01/26 07:52:16;;;;;;;;;;;;;;;1.57;87.18;98371.38;4184653;28;5715;-67
2022/01/26 07:54:19;;;;;;;;;;;;;;;1.49;87.82;98371.91;4184463;28;5726;-67
2022/01/26 07:56:21;;;;;;;;;;;;;;;1.52;87.28;98369.09;4180273;28;5887;-67
2022/01/26 07:58:22;;;;;;;;;;;;;;;1.55;87.51;98368.88;4182527;28;5839;-66
2022/01/26 08:00:24;;;;;;;;;;;;;;;1.62;87.19;98374.53;4181648;28;5654;-68
2022/01/26 08:02:26;;;;;;;;;;;;;;;1.67;86.98;98372.47;4169296;28;5732;-66
2022/01/26 08:04:28;;;;;;;;;;;;;;;1.64;86.96;98373.50;4176735;28;5722;-66
2022/01/26 08:06:30;;;;;;;;;;;;;;;1.46;87.70;98375.50;4184164;28;5818;-66
2022/01/26 08:08:32;;;;;;;;;;;;;;;1.50;87.87;98378.78;4184966;28;6392;-66
2022/01/26 08:10:34;;;;;;;;;;;;;;;1.65;87.15;98377.78;4183041;28;5659;-66
2022/01/26 08:12:37;;;;;;;;;;;;;;;1.74;86.73;98378.97;4185438;28;5809;-66
2022/01/26 08:14:56;;;;;;;;;;;;;;;1.78;86.44;98374.38;4184620;28;5725;-66
2022/01/26 08:16:57;;;;;;;;;;;;;;;1.57;87.62;98372.22;4182589;28;5740;-66
2022/01/26 08:18:59;;;;;;;;;;;;;;;1.71;87.22;98368.75;4182951;28;6301;-66
2022/01/26 08:21:05;;;;;;;;;;;;;;;1.55;87.89;98375.88;4183912;28;5823;-66
2022/01/26 08:23:07;;;;;;;;;;;;;;;1.67;87.14;98380.28;4180487;28;5858;-66
2022/01/26 08:25:10;;;;;;;;;;;;;;;1.47;88.08;98368.53;4179618;28;5773;-66
2022/01/26 08:27:14;;;;;;;;;;;;;;;1.68;87.59;98374.13;4183475;28;5715;-67
2022/01/26 08:29:21;;;;;;;;;;;;;;;1.79;86.90;98371.66;4177675;28;5993;-66
2022/01/26 08:31:25;;;;;;;;;;;;;;;1.77;87.05;98372.72;4181642;28;5718;-66
2022/01/26 08:33:27;;;;;;;;;;;;;;;1.72;87.16;98371.25;4182364;28;5839;-66
2022/01/26 08:35:28;;;;;;;;;;;;;;;1.61;87.34;98383.31;4178605;28;6452;-67
2022/01/26 08:37:30;;;;;;;;;;;;;;;1.59;87.66;98370.38;4173057;28;5650;-66
2022/01/26 08:39:33;;;;;;;;;;;;;;;1.66;87.60;98369.03;4179156;28;5726;-66
2022/01/26 08:41:34;;;;;;;;;;;;;;;1.63;87.59;98366.63;4176574;28;5727;-66
2022/01/26 08:43:36;;;;;;;;;;;;;;;1.60;87.90;98374.66;4182291;28;5782;-67
2022/01/26 08:45:38;;;;;;;;;;;;;;;1.75;87.71;98370.22;4172818;28;5727;-66
2022/01/26 08:47:40;;;;;;;;;;;;;;;1.80;87.08;98372.50;4171224;28;5711;-66
2022/01/26 08:49:42;;;;;;;;;;;;;;;1.90;86.65;98379.63;4182984;28;6394;-66
2022/01/26 08:51:43;;;;;;;;;;;;;;;1.98;86.42;98376.53;4180087;28;5809;-66
2022/01/26 08:53:47;;;;;;;;;;;;;;;1.96;86.15;98375.78;4180176;28;5796;-66
2022/01/26 08:55:51;;;;;;;;;;;;;;;1.93;86.52;98381.22;4183886;28;5677;-66
2022/01/26 08:57:52;;;;;;;;;;;;;;;1.87;86.76;98373.78;4182450;28;5726;-66
2022/01/26 08:59:54;;;;;;;;;;;;;;;2.09;86.18;98378.44;4183888;28;5723;-66
2022/01/26 09:01:58;;;;;;;;;;;;;;;2.09;86.17;98376.66;4182949;28;6364;-66
2022/01/26 09:04:00;;;;;;;;;;;;;;;2.18;85.63;98376.06;4184683;28;5719;-67
2022/01/26 09:06:02;;;;;;;;;;;;;;;2.14;85.60;98377.16;4181426;28;5653;-67
2022/01/26 09:08:04;;;;;;;;;;;;;;;2.17;85.79;98374.38;4183134;28;5741;-67
2022/01/26 09:10:09;;;;;;;;;;;;;;;2.17;85.66;98374.38;4182294;28;5792;-67
2022/01/26 09:12:14;;;;;;;;;;;;;;;2.16;85.66;98380.53;4180814;28;5634;-67
2022/01/26 09:14:19;;;;;;;;;;;;;;;2.23;85.34;98381.78;4184876;28;5770;-67
2022/01/26 09:16:23;;;;;;;;;;;;;;;2.12;85.64;98381.66;4184938;28;5823;-67
2022/01/26 09:18:34;;;;;;;;;;;;;;;1.99;86.29;98391.25;4187884;28;5837;-67
2022/01/26 09:20:38;;;;;;;;;;;;;;;2.11;86.26;98400.03;4185097;28;5705;-67
2022/01/26 09:22:39;;;;;;;;;;;;;;;2.16;85.77;98396.19;4185860;28;5653;-67
2022/01/26 09:24:42;;;;;;;;;;;;;;;2.09;86.02;98400.13;4188065;28;5714;-65
2022/01/26 09:26:44;;;;;;;;;;;;;;;1.81;87.01;98408.06;4187110;28;5711;-66
2022/01/26 09:28:46;;;;;;;;;;;;;;;1.78;87.45;98400.44;4182772;28;5713;-67
2022/01/26 09:30:49;;;;;;;;;;;;;;;2.11;86.11;98395.66;4184536;28;5641;-65
2022/01/26 09:32:51;;;;;;;;;;;;;;;2.25;85.40;98390.34;4186680;28;5739;-66
2022/01/26 09:34:53;;;;;;;;;;;;;;;2.36;85.04;98399.22;4185750;28;5710;-67
2022/01/26 09:36:55;;;;;;;;;;;;;;;2.41;84.94;98392.78;4184404;28;5657;-67
2022/01/26 09:38:57;;;;;;;;;;;;;;;2.43;85.46;98395.28;4178792;28;5729;-67
2022/01/26 09:40:59;;;;;;;;;;;;;;;2.42;85.81;98385.78;4186158;28;5649;-67
2022/01/26 09:43:01;;;;;;;;;;;;;;;2.38;85.93;98389.50;4186769;28;5726;-67
2022/01/26 09:45:05;;;;;;;;;;;;;;;2.41;85.99;98392.78;4187475;28;5707;-67
2022/01/26 09:47:08;;;;;;;;;;;;;;;2.37;86.05;98393.06;4184906;28;5697;-67
2022/01/26 09:49:10;;;;;;;;;;;;;;;2.28;86.13;98392.75;4185456;28;5745;-66
2022/01/26 09:51:13;;;;;;;;;;;;;;;2.22;86.85;98387.94;4186065;28;5718;-67
2022/01/26 09:53:20;;;;;;;;;;;;;;;2.24;86.50;98383.44;4187156;28;5718;-67
2022/01/26 09:55:22;;;;;;;;;;;;;;;2.24;86.71;98386.06;4187296;28;5727;-67
2022/01/26 09:57:24;;;;;;;;;;;;;;;2.02;87.71;98388.41;4185352;28;5822;-68
2022/01/26 09:59:25;;;;;;;;;;;;;;;1.84;88.92;98392.25;4186302;28;5638;-67
2022/01/26 10:01:27;;;;;;;;;;;;;;;2.09;87.46;98392.31;4186342;28;5719;-67
2022/01/26 10:03:34;;;;;;;;;;;;;;;2.11;87.10;98381.75;4186298;28;5718;-67
2022/01/26 10:05:44;;;;;;;;;;;;;;;2.14;87.05;98382.38;4185737;28;5731;-67
2022/01/26 10:07:51;;;;;;;;;;;;;;;2.08;87.36;98382.81;4186083;28;5893;-66
2022/01/26 10:10:29;;;;;;;;;;;;;;;1.84;89.09;98392.25;4186312;28;5739;-66
2022/01/26 10:17:28;;;;;;;;;;;;;;;2.08;87.85;98398.47;4184177;28;5677;-68
2022/01/26 10:19:30;;;;;;;;;;;;;;;2.16;87.26;98396.19;4185141;28;5649;-67
2022/01/26 10:21:32;;;;;;;;;;;;;;;2.14;87.36;98398.03;4184594;28;5641;-67
2022/01/26 10:23:42;;;;;;;;;;;;;;;2.17;87.29;98389.19;4155921;28;6036;-67
2022/01/26 10:26:02;;;;;;;;;;;;;;;1.94;88.44;98385.50;4170663;28;5728;-67
2022/01/26 10:28:03;;;;;;;;;;;;;;;2.06;88.07;98389.06;4168566;28;5668;-67
2022/01/26 10:30:07;;;;;;;;;;;;;;;2.22;87.39;98400.16;4176702;28;6080;-66
2022/01/26 10:32:12;;;;;;;;;;;;;;;2.11;87.72;98390.44;4184965;28;6313;-66
2022/01/26 10:34:19;;;;;;;;;;;;;;;2.10;88.05;98391.38;4185499;28;6398;-66
2022/01/26 10:36:21;;;;;;;;;;;;;;;2.17;87.42;98402.25;4184251;28;5646;-66
2022/01/26 10:38:22;;;;;;;;;;;;;;;2.26;87.25;98397.22;4186138;28;6394;-66
2022/01/26 10:40:27;;;;;;;;;;;;;;;2.12;87.58;98381.66;4185856;28;5852;-66
2022/01/26 10:42:28;;;;;;;;;;;;;;;2.24;86.94;98383.44;4185053;28;5984;-66
2022/01/26 10:44:36;;;;;;;;;;;;;;;2.25;86.85;98385.13;4185888;28;5835;-65
2022/01/26 10:46:41;;;;;;;;;;;;;;;2.29;86.96;98386.59;4186518;28;5715;-66
2022/01/26 10:49:05;;;;;;;;;;;;;;;2.17;87.26;98379.59;4185075;28;5726;-66
2022/01/26 10:51:54;;;;;;;;;;;;;;;2.18;87.35;98365.63;4185112;28;5870;-66
2022/01/26 10:53:46;;;;;;;;;;;;;;;2.24;86.74;98366.97;4182940;28;5707;-66
2022/01/26 10:55:48;;;;;;;;;;;;;;;2.25;86.71;98369.47;4174166;28;5718;-66
2022/01/26 10:57:49;;;;;;;;;;;;;;;2.05;87.66;98356.94;4183308;28;5712;-66
2022/01/26 10:59:51;;;;;;;;;;;;;;;2.26;87.16;98368.53;4183108;28;5852;-66
2022/01/26 11:01:59;;;;;;;;;;;;;;;2.25;86.84;98364.25;4181735;28;5865;-67
2022/01/26 11:04:01;;;;;;;;;;;;;;;2.27;87.19;98357.19;4174317;28;6162;-66
2022/01/26 11:06:05;;;;;;;;;;;;;;;2.27;87.11;98365.00;4183080;28;5722;-66
2022/01/26 11:08:09;;;;;;;;;;;;;;;2.25;86.56;98358.19;4177778;28;5899;-66
2022/01/26 11:10:12;;;;;;;;;;;;;;;2.19;87.05;98362.06;4172097;28;5860;-66
2022/01/26 11:12:16;;;;;;;;;;;;;;;2.16;86.89;98362.28;4166148;28;5668;-66
2022/01/26 11:14:24;;;;;;;;;;;;;;;2.25;86.49;98366.84;4182031;28;5714;-66
2022/01/26 11:16:26;;;;;;;;;;;;;;;2.34;86.51;98358.41;4184596;28;5928;-66
2022/01/26 11:18:33;;;;;;;;;;;;;;;2.41;86.24;98365.84;4183714;28;5915;-66
2022/01/26 11:20:48;;;;;;;;;;;;;;;2.13;86.70;98354.63;4167531;28;5831;-66
2022/01/26 11:22:52;;;;;;;;;;;;;;;2.33;85.92;98351.53;4184401;28;5719;-66
2022/01/26 11:24:55;;;;;;;;;;;;;;;2.40;85.64;98351.97;4182540;28;5727;-66
2022/01/26 11:27:05;;;;;;;;;;;;;;;2.41;86.05;98352.78;4173651;28;5767;-67
2022/01/26 11:29:24;;;;;;;;;;;;;;;2.44;85.71;98339.53;4134701;28;5885;-67
2022/01/26 11:31:26;;;;;;;;;;;;;;;2.43;85.35;98330.03;4177594;28;5799;-67
2022/01/26 11:33:49;;;;;;;;;;;;;;;2.48;85.14;98328.75;4181535;28;5786;-68
2022/01/26 11:35:53;;;;;;;;;;;;;;;2.52;85.27;98330.22;4179339;28;5663;-65
2022/01/26 11:39:03;;;;;;;;;;;;;;;2.46;85.23;98328.03;4184057;28;5719;-66
2022/01/26 11:45:35;;;;;;;;;;;;;;;2.41;85.17;98317.09;4175403;28;5734;-66
2022/01/26 11:47:40;;;;;;;;;;;;;;;2.44;85.33;98319.47;4183045;28;6599;-66
2022/01/26 11:49:44;;;;;;;;;;;;;;;1.91;87.75;98315.25;4183546;28;6378;-66
2022/01/26 11:51:51;;;;;;;;;;;;;;;2.20;86.78;98319.38;4165919;28;5653;-66
2022/01/26 11:53:53;;;;;;;;;;;;;;;2.34;85.91;98318.44;4185627;28;5722;-66
2022/01/26 11:56:10;;;;;;;;;;;;;;;2.42;85.17;98318.75;4184257;28;5727;-66
2022/01/26 11:58:17;;;;;;;;;;;;;;;2.47;85.08;98319.25;4183384;28;5817;-66
2022/01/26 12:00:41;;;;;;;;;;;;;;;2.55;84.77;98319.56;4172836;28;5722;-66
2022/01/26 12:05:10;;;;;;;;;;;;;;;2.40;84.60;98314.59;4150195;28;5748;-66
2022/01/26 12:07:22;;;;;;;;;;;;;;;2.31;85.25;98318.66;4146188;28;5906;-66
2022/01/26 12:09:24;;;;;;;;;;;;;;;2.19;85.50;98316.88;4167267;28;5665;-66
2022/01/26 12:11:29;;;;;;;;;;;;;;;2.23;85.29;98303.50;4167902;28;5665;-66
2022/01/26 12:13:32;;;;;;;;;;;;;;;2.32;85.30;98302.88;4149732;28;5699;-66
2022/01/26 12:15:44;;;;;;;;;;;;;;;2.32;85.05;98295.06;4161694;28;5676;-66
2022/01/26 12:17:59;;;;;;;;;;;;;;;2.31;84.97;98285.56;4158293;28;5665;-66
2022/01/26 12:32:44;;;;;;;;;;;;;;;2.00;86.28;98270.31;4151858;28;5792;-66
2022/01/26 12:35:00;;;;;;;;;;;;;;;2.14;85.60;98264.16;4163118;28;5778;-66
2022/01/26 12:39:10;;;;;;;;;;;;;;;2.16;85.47;98263.13;4160599;28;5895;-69
2022/01/26 12:43:49;;;;;;;;;;;;;;;2.12;85.41;98256.44;4144782;28;6309;-68
2022/01/26 12:45:54;;;;;;;;;;;;;;;2.17;85.31;98251.75;4165132;28;5665;-67
2022/01/26 12:47:58;;;;;;;;;;;;;;;2.12;85.41;98260.81;4148953;28;5668;-68
2022/01/26 12:50:03;;;;;;;;;;;;;;;2.06;85.54;98253.44;4159860;28;5863;-66
2022/01/26 12:52:10;;;;;;;;;;;;;;;2.11;85.42;98252.16;4165782;28;5776;-68
2022/01/26 12:54:12;;;;;;;;;;;;;;;2.20;85.22;98240.25;4153560;28;5257;-68
2022/01/26 12:56:14;;;;;;;;;;;;;;;2.32;85.01;98240.25;4142685;28;5823;-67
2022/01/26 12:58:27;;;;;;;;;;;;;;;2.40;84.56;98249.31;4159803;28;5641;-66